Time;durP1;ratioP1;P1;durP2;ratioP2;P2;SDS_P1;SDS_P2;PMS_P1;PMS_P2;Temp;Humidity;BMP_temperature;BMP_pressure;BME280_temperature;BME280_humidity;BME280_pressure;Samples;Min_cycle;Max_cycle;Signal;HPM_P1;HPM_P2
2023/04/03 00:00:59;;;;;;;5.38;4.43;;;;;;;1.64;96.56;102914.69;5040350;28;20501;-84
2023/04/03 00:03:24;;;;;;;6.25;4.57;;;;;;;1.55;96.55;102920.00;5040932;28;20025;-84
2023/04/03 00:05:50;;;;;;;5.95;5.20;;;;;;;1.50;96.37;102915.66;5041033;28;20029;-84
2023/04/03 00:08:15;;;;;;;6.97;4.78;;;;;;;1.45;96.67;102908.72;5042062;28;20029;-84
2023/04/03 00:10:41;;;;;;;6.95;5.05;;;;;;;1.46;97.37;102909.56;5024119;28;20032;-84
2023/04/03 00:13:08;;;;;;;6.10;5.03;;;;;;;1.51;97.31;102922.66;5039662;28;20030;-84
2023/04/03 00:15:34;;;;;;;7.10;5.25;;;;;;;1.46;97.72;102913.06;5028161;28;20088;-84
2023/04/03 00:18:01;;;;;;;8.45;5.60;;;;;;;1.46;97.66;102920.91;5042637;28;20048;-84
2023/04/03 00:20:27;;;;;;;6.60;5.03;;;;;;;1.50;97.07;102929.66;5056366;28;20025;-84
2023/04/03 00:22:53;;;;;;;6.80;4.85;;;;;;;1.48;97.38;102929.66;5042827;28;20478;-84
2023/04/03 00:25:18;;;;;;;6.80;4.85;;;;;;;1.44;97.01;102927.91;5042104;28;20038;-84
2023/04/03 00:27:44;;;;;;;6.50;4.97;;;;;;;1.46;97.41;102933.13;5042216;28;20028;-84
2023/04/03 00:30:13;;;;;;;5.30;4.80;;;;;;;1.42;96.62;102939.28;5041359;28;20370;-84
2023/04/03 00:32:38;;;;;;;6.75;5.07;;;;;;;1.40;97.27;102935.78;5041911;28;20366;-84
2023/04/03 00:35:05;;;;;;;6.65;4.50;;;;;;;1.35;96.77;102932.31;5037161;28;20029;-84
2023/04/03 00:37:30;;;;;;;6.90;5.10;;;;;;;1.32;97.01;102934.97;5030952;28;20557;-84
2023/04/03 00:39:56;;;;;;;7.18;5.10;;;;;;;1.29;96.69;102935.84;5027731;28;20026;-84
2023/04/03 00:42:21;;;;;;;5.78;4.68;;;;;;;1.24;97.34;102921.91;5041346;28;20036;-84
2023/04/03 00:44:46;;;;;;;9.27;4.95;;;;;;;1.25;97.15;102934.09;5040964;28;20044;-84
2023/04/03 00:47:17;;;;;;;7.00;4.65;;;;;;;1.22;97.57;102932.38;5048881;28;20352;-84
2023/04/03 00:49:44;;;;;;;6.45;4.78;;;;;;;1.17;97.59;102947.22;5036660;28;20053;-84
2023/04/03 00:52:15;;;;;;;7.13;5.00;;;;;;;1.15;98.00;102945.47;5019273;28;20471;-84
2023/04/03 00:54:42;;;;;;;6.90;4.70;;;;;;;1.11;97.69;102942.88;5026621;28;20053;-84
2023/04/03 00:57:08;;;;;;;8.73;5.15;;;;;;;1.14;98.26;102941.13;5038788;28;20057;-84
2023/04/03 00:59:43;;;;;;;6.47;4.80;;;;;;;1.10;98.21;102942.91;5047150;28;20029;-84
2023/04/03 01:02:09;;;;;;;5.25;4.78;;;;;;;1.10;97.81;102948.13;5027402;28;20032;-84
2023/04/03 01:04:36;;;;;;;6.80;5.22;;;;;;;1.07;97.83;102950.75;5029393;28;20105;-84
2023/04/03 01:07:07;;;;;;;6.93;4.60;;;;;;;1.02;97.63;102949.91;5043375;28;20064;-84
2023/04/03 01:09:33;;;;;;;6.28;4.93;;;;;;;0.98;97.90;102943.78;5040732;28;20029;-84
2023/04/03 01:12:19;;;;;;;5.60;4.88;;;;;;;1.00;98.23;102949.00;5040578;28;20043;-84
2023/04/03 01:14:48;;;;;;;7.63;4.78;;;;;;;0.98;97.84;102948.16;5040280;28;20022;-84
2023/04/03 01:17:34;;;;;;;6.07;4.78;;;;;;;0.97;97.52;102949.03;5029377;28;20026;-84
2023/04/03 01:20:22;;;;;;;5.55;4.88;;;;;;;0.91;98.13;102942.91;5031582;28;20372;-84
2023/04/03 01:22:59;;;;;;;7.47;5.15;;;;;;;0.85;98.44;102948.19;5044282;28;20044;-84
2023/04/03 01:25:26;;;;;;;5.78;4.43;;;;;;;0.86;98.58;102947.28;5026473;28;20117;-84
2023/04/03 01:27:51;;;;;;;5.20;4.70;;;;;;;0.84;98.55;102948.19;5025917;28;20085;-84
2023/04/03 01:30:20;;;;;;;6.30;4.57;;;;;;;0.86;98.63;102952.53;5034017;28;20055;-84
2023/04/03 01:32:45;;;;;;;5.07;4.22;;;;;;;0.81;98.53;102946.44;5038877;28;20429;-83
2023/04/03 01:35:12;;;;;;;5.75;4.63;;;;;;;0.81;98.34;102954.28;5038246;28;20028;-84
2023/04/03 01:37:37;;;;;;;4.70;4.18;;;;;;;0.75;98.08;102949.09;5032713;28;20077;-84
2023/04/03 01:40:04;;;;;;;6.53;4.90;;;;;;;0.72;98.99;102952.56;5040129;28;20451;-84
2023/04/03 01:42:29;;;;;;;6.82;4.82;;;;;;;0.70;98.89;102958.66;5039223;28;20034;-84
2023/04/03 01:44:55;;;;;;;5.72;4.70;;;;;;;0.69;98.74;102956.94;5020568;28;20343;-84
2023/04/03 01:47:21;;;;;;;6.78;4.75;;;;;;;0.66;98.70;102955.19;5032716;28;20056;-84
2023/04/03 01:49:47;;;;;;;5.50;4.90;;;;;;;0.67;98.92;102949.09;5040788;28;20025;-84
2023/04/03 01:52:12;;;;;;;6.72;5.68;;;;;;;0.70;98.92;102954.31;5042622;28;20025;-84
2023/04/03 01:54:38;;;;;;;6.00;5.40;;;;;;;0.67;99.36;102948.22;5050130;28;20030;-84
2023/04/03 01:57:03;;;;;;;6.03;5.43;;;;;;;0.61;99.78;102943.00;5054103;28;20033;-84
2023/04/03 01:59:29;;;;;;;8.90;6.35;;;;;;;0.67;99.89;102953.47;5053061;28;20033;-84
2023/04/03 02:01:55;;;;;;;10.07;6.03;;;;;;;0.65;99.77;102952.56;5053303;28;20025;-84
2023/04/03 02:04:20;;;;;;;10.20;6.57;;;;;;;0.64;100.00;102954.31;5052432;28;20030;-84
2023/04/03 02:06:45;;;;;;;6.70;6.00;;;;;;;0.65;100.00;102953.44;5050381;28;20021;-84
2023/04/03 02:09:11;;;;;;;7.97;6.18;;;;;;;0.61;100.00;102951.69;5047221;28;20036;-84
2023/04/03 02:11:36;;;;;;;8.45;6.13;;;;;;;0.61;99.98;102956.94;5042977;28;20024;-84
2023/04/03 02:14:02;;;;;;;10.25;6.38;;;;;;;0.60;99.69;102956.94;5041240;28;20026;-84
2023/04/03 02:16:28;;;;;;;8.68;6.32;;;;;;;0.59;100.00;102956.06;5040072;28;20017;-84
2023/04/03 02:18:54;;;;;;;9.60;6.20;;;;;;;0.57;100.00;102954.31;5028496;28;20026;-84
2023/04/03 02:21:20;;;;;;;8.23;6.88;;;;;;;0.58;100.00;102959.53;5024853;28;20022;-84
2023/04/03 02:23:45;;;;;;;8.75;6.70;;;;;;;0.58;100.00;102953.44;5016615;28;20033;-84
2023/04/03 02:26:13;;;;;;;7.80;6.57;;;;;;;0.51;100.00;102943.00;5036210;28;20025;-84
2023/04/03 02:28:40;;;;;;;7.60;6.63;;;;;;;0.59;100.00;102960.44;5037602;28;20055;-84
2023/04/03 02:31:07;;;;;;;8.30;6.68;;;;;;;0.54;100.00;102950.84;5022541;28;20108;-84
2023/04/03 02:33:33;;;;;;;9.70;6.68;;;;;;;0.55;100.00;102960.44;5019658;28;20041;-84
2023/04/03 02:35:58;;;;;;;8.00;6.82;;;;;;;0.53;100.00;102956.97;5021278;28;20029;-84
2023/04/03 02:38:25;;;;;;;8.05;6.20;;;;;;;0.53;100.00;102967.41;5021844;28;20372;-84
2023/04/03 02:40:51;;;;;;;11.00;5.97;;;;;;;0.54;100.00;102973.50;5029951;28;20037;-84
2023/04/03 02:43:17;;;;;;;8.27;6.35;;;;;;;0.54;100.00;102968.28;5031728;28;20022;-84
2023/04/03 02:45:43;;;;;;;7.03;6.32;;;;;;;0.55;100.00;102975.25;5032157;28;20085;-84
2023/04/03 02:48:09;;;;;;;9.35;6.25;;;;;;;0.55;100.00;102975.25;5029545;28;20037;-84
2023/04/03 02:50:34;;;;;;;7.10;6.38;;;;;;;0.59;100.00;102984.81;5040270;28;20035;-84
2023/04/03 02:53:00;;;;;;;12.27;6.75;;;;;;;0.56;100.00;102974.38;5055135;28;20048;-84
2023/04/03 02:55:25;;;;;;;8.45;6.30;;;;;;;0.58;100.00;102980.47;5048881;28;20026;-84
2023/04/03 02:57:51;;;;;;;9.07;6.70;;;;;;;0.54;100.00;102978.72;5037161;28;20187;-84
2023/04/03 03:00:16;;;;;;;9.07;6.35;;;;;;;0.58;100.00;102988.31;5025072;28;20167;-84
2023/04/03 03:02:42;;;;;;;9.38;6.30;;;;;;;0.58;100.00;102979.59;5031635;28;20089;-84
2023/04/03 03:05:10;;;;;;;6.93;6.30;;;;;;;0.52;100.00;102970.88;5019580;28;20025;-84
2023/04/03 03:07:35;;;;;;;10.57;6.13;;;;;;;0.55;100.00;102976.13;5020707;28;20026;-84
2023/04/03 03:10:02;;;;;;;10.52;6.53;;;;;;;0.59;100.00;102981.34;5036952;28;20099;-84
2023/04/03 03:12:27;;;;;;;9.75;6.43;;;;;;;0.55;100.00;102976.13;5030247;28;20021;-84
2023/04/03 03:14:53;;;;;;;10.43;6.25;;;;;;;0.52;100.00;102970.03;5019610;28;20467;-84
2023/04/03 03:17:18;;;;;;;10.73;6.32;;;;;;;0.58;100.00;102984.81;5030006;28;20021;-84
2023/04/03 03:19:45;;;;;;;10.45;5.70;;;;;;;0.54;100.00;102965.66;5037400;28;20093;-84
2023/04/03 03:22:11;;;;;;;8.27;5.80;;;;;;;0.49;100.00;102957.81;5020669;28;20022;-84
2023/04/03 03:24:36;;;;;;;6.75;5.85;;;;;;;0.55;100.00;102978.75;5037527;28;20029;-84
2023/04/03 03:27:02;;;;;;;7.47;6.03;;;;;;;0.57;100.00;102980.47;5040483;28;20052;-84
2023/04/03 03:29:27;;;;;;;7.65;5.82;;;;;;;0.51;100.00;102974.38;5040123;28;20030;-84
2023/04/03 03:31:53;;;;;;;10.15;5.53;;;;;;;0.51;100.00;102974.38;5039098;28;20029;-84
2023/04/03 03:34:18;;;;;;;11.48;5.85;;;;;;;0.52;100.00;102983.97;5025704;28;20041;-84
2023/04/03 03:36:44;;;;;;;6.93;5.57;;;;;;;0.54;100.00;102992.66;5038431;28;20042;-84
2023/04/03 03:39:10;;;;;;;7.20;5.38;;;;;;;0.53;100.00;102987.44;5039103;28;20037;-84
2023/04/03 03:41:35;;;;;;;8.70;5.53;;;;;;;0.54;100.00;102990.06;5037287;28;20475;-84
2023/04/03 03:44:01;;;;;;;7.63;5.60;;;;;;;0.48;100.00;102989.19;5038387;28;20026;-84
2023/04/03 03:46:26;;;;;;;6.95;5.40;;;;;;;0.51;100.00;102999.66;5055022;28;20029;-84
2023/04/03 03:48:51;;;;;;;9.88;5.05;;;;;;;0.53;100.00;103004.03;5036560;28;20113;-83
2023/04/03 03:51:17;;;;;;;6.28;4.93;;;;;;;0.50;100.00;102997.88;5019813;28;20024;-84
2023/04/03 03:53:42;;;;;;;7.63;5.50;;;;;;;0.50;100.00;103000.50;5037350;28;20033;-84
2023/04/03 03:56:07;;;;;;;8.25;5.03;;;;;;;0.48;100.00;102994.41;5035687;28;20025;-84
2023/04/03 03:58:33;;;;;;;6.07;4.75;;;;;;;0.50;100.00;103001.41;5035476;28;20040;-84
2023/04/03 04:01:03;;;;;;;8.25;5.07;;;;;;;0.47;100.00;103001.41;5019138;28;20022;-84
2023/04/03 04:03:28;;;;;;;8.65;5.28;;;;;;;0.44;100.00;102993.53;5022482;28;20037;-84
2023/04/03 04:05:53;;;;;;;7.93;5.05;;;;;;;0.47;100.00;103000.53;5038205;28;20057;-84
2023/04/03 04:08:19;;;;;;;4.97;4.47;;;;;;;0.44;100.00;103001.38;5038869;28;20435;-84
2023/04/03 04:10:44;;;;;;;8.45;4.95;;;;;;;0.47;100.00;103009.25;5039643;28;20025;-84
2023/04/03 04:13:10;;;;;;;5.63;4.47;;;;;;;0.46;100.00;103006.63;5038361;28;20026;-84
2023/04/03 04:15:35;;;;;;;5.75;4.45;;;;;;;0.45;100.00;102999.63;5037348;28;20522;-84
2023/04/03 04:18:01;;;;;;;9.13;4.78;;;;;;;0.43;100.00;103004.88;5038095;28;20463;-84
2023/04/03 04:20:26;;;;;;;8.98;4.50;;;;;;;0.42;100.00;103004.84;5039219;28;20451;-84
2023/04/03 04:22:51;;;;;;;8.57;4.55;;;;;;;0.46;100.00;103014.47;5037789;28;20029;-84
2023/04/03 04:25:17;;;;;;;5.22;3.83;;;;;;;0.44;99.92;103006.63;5040997;28;20075;-84
2023/04/03 04:27:42;;;;;;;6.18;4.00;;;;;;;0.43;100.00;103007.47;5021834;28;20033;-84
2023/04/03 04:30:09;;;;;;;6.10;4.13;;;;;;;0.43;100.00;103001.38;5017594;28;20471;-84
2023/04/03 04:32:35;;;;;;;7.20;4.18;;;;;;;0.43;100.00;102998.78;5041074;28;20094;-83
2023/04/03 04:35:01;;;;;;;7.68;4.18;;;;;;;0.42;99.74;103005.75;5057096;28;20042;-84
2023/04/03 04:37:26;;;;;;;7.63;4.20;;;;;;;0.36;99.69;102997.91;5038959;28;20052;-85
2023/04/03 04:39:51;;;;;;;7.30;4.15;;;;;;;0.38;99.76;103001.38;5039524;28;20040;-84
2023/04/03 04:42:17;;;;;;;7.68;3.55;;;;;;;0.37;99.31;103002.25;5024298;28;20407;-84
2023/04/03 04:44:42;;;;;;;6.63;4.40;;;;;;;0.33;99.48;103005.72;5018480;28;20391;-84
2023/04/03 04:47:07;;;;;;;13.40;4.55;;;;;;;0.33;99.72;103010.97;5034479;28;20499;-83
2023/04/03 04:49:33;;;;;;;6.68;4.20;;;;;;;0.28;99.55;103010.09;5018617;28;20038;-83
2023/04/03 04:51:58;;;;;;;6.50;4.20;;;;;;;0.31;99.72;103013.56;5017264;28;20526;-84
2023/04/03 04:54:27;;;;;;;5.55;3.97;;;;;;;0.25;99.72;103015.31;5034632;28;20030;-83
2023/04/03 04:56:52;;;;;;;9.40;4.00;;;;;;;0.28;99.92;103023.16;5020871;28;20041;-83
2023/04/03 04:59:19;;;;;;;5.07;3.90;;;;;;;0.28;100.00;103021.41;5037508;28;20037;-83
2023/04/03 05:01:44;;;;;;;6.30;3.65;;;;;;;0.28;99.73;103021.41;5032174;28;20633;-83
2023/04/03 05:04:10;;;;;;;8.95;4.40;;;;;;;0.27;99.72;103035.34;5027666;28;20032;-83
2023/04/03 05:06:39;;;;;;;4.63;3.78;;;;;;;0.26;99.59;103025.75;5036845;28;20067;-84
2023/04/03 05:09:05;;;;;;;6.13;3.55;;;;;;;0.28;99.78;103033.59;5041074;28;20025;-83
2023/04/03 05:11:39;;;;;;;4.60;3.55;;;;;;;0.30;100.00;103029.25;5040197;28;20026;-83
2023/04/03 05:14:06;;;;;;;5.88;3.30;;;;;;;0.23;100.00;103014.44;5041056;28;20101;-84
2023/04/03 05:16:32;;;;;;;5.68;3.40;;;;;;;0.27;99.93;103037.09;5050986;28;20039;-82
2023/04/03 05:19:02;;;;;;;3.67;3.38;;;;;;;0.22;100.00;103031.88;5053873;28;20018;-84
2023/04/03 05:21:31;;;;;;;4.63;3.40;;;;;;;0.29;100.00;103040.59;5043377;28;20459;-84
2023/04/03 05:24:02;;;;;;;10.55;3.35;;;;;;;0.29;100.00;103040.59;5046141;28;20048;-84
2023/04/03 05:26:30;;;;;;;7.25;3.38;;;;;;;0.29;100.00;103044.06;5044352;28;20029;-84
2023/04/03 05:28:56;;;;;;;6.60;3.80;;;;;;;0.30;100.00;103045.81;5033317;28;20025;-84
2023/04/03 05:31:22;;;;;;;5.97;3.55;;;;;;;0.28;100.00;103044.91;5032890;28;20518;-85
2023/04/03 05:33:48;;;;;;;5.95;3.65;;;;;;;0.31;99.84;103047.53;5029113;28;20033;-84
2023/04/03 05:36:13;;;;;;;8.63;3.45;;;;;;;0.29;99.83;103046.69;5024839;28;20632;-84
2023/04/03 05:38:41;;;;;;;6.32;3.83;;;;;;;0.25;100.00;103041.44;5029090;28;20087;-84
2023/04/03 05:41:07;;;;;;;7.45;3.55;;;;;;;0.24;99.97;103040.56;5036350;28;20041;-84
2023/04/03 05:43:34;;;;;;;4.38;3.03;;;;;;;0.34;100.00;103055.41;5038579;28;20035;-84
2023/04/03 05:45:59;;;;;;;4.25;3.22;;;;;;;0.32;99.77;103048.44;5038995;28;20036;-84
2023/04/03 05:48:25;;;;;;;3.95;3.60;;;;;;;0.31;99.92;103051.91;5033696;28;20025;-85
2023/04/03 05:50:52;;;;;;;6.07;3.28;;;;;;;0.33;99.79;103051.06;5026375;28;20046;-84
2023/04/03 05:53:37;;;;;;;6.07;3.08;;;;;;;0.41;100.00;103060.66;5032361;28;20546;-84
2023/04/03 05:56:03;;;;;;;5.68;3.30;;;;;;;0.39;99.79;103052.81;5021031;28;20077;-84
2023/04/03 05:58:29;;;;;;;6.03;3.70;;;;;;;0.42;99.90;103062.38;5025284;28;20490;-83
2023/04/03 06:00:54;;;;;;;6.80;3.47;;;;;;;0.45;99.89;103062.38;5036192;28;20045;-85
2023/04/03 06:03:20;;;;;;;5.18;3.10;;;;;;;0.39;99.62;103055.41;5032896;28;20030;-84
2023/04/03 06:05:46;;;;;;;5.22;3.28;;;;;;;0.46;99.57;103057.16;5042695;28;20103;-85
2023/04/03 06:08:12;;;;;;;5.72;3.42;;;;;;;0.50;99.80;103069.38;5049585;28;20012;-85
2023/04/03 06:10:38;;;;;;;6.30;3.42;;;;;;;0.50;99.24;103058.91;5044878;28;20042;-85
2023/04/03 06:13:06;;;;;;;4.20;3.20;;;;;;;0.55;99.26;103072.00;5038316;28;20041;-85
2023/04/03 06:15:33;;;;;;;7.32;3.33;;;;;;;0.59;98.94;103070.25;5046882;28;20033;-85
2023/04/03 06:17:59;;;;;;;6.07;3.20;;;;;;;0.54;98.85;103057.19;5036873;28;20022;-85
2023/04/03 06:20:25;;;;;;;5.95;3.13;;;;;;;0.65;98.81;103072.88;5043431;28;20086;-85
2023/04/03 06:22:51;;;;;;;6.90;3.80;;;;;;;0.66;98.50;103078.09;5042982;28;20083;-85
2023/04/03 06:25:18;;;;;;;5.93;3.22;;;;;;;0.68;98.78;103078.09;5045447;28;20034;-84
2023/04/03 06:27:44;;;;;;;6.25;3.60;;;;;;;0.71;98.57;103083.34;5037604;28;20037;-84
2023/04/03 06:30:10;;;;;;;6.20;3.30;;;;;;;0.76;98.60;103078.97;5044302;28;20029;-84
2023/04/03 06:32:36;;;;;;;7.57;3.42;;;;;;;0.77;98.01;103078.13;5038181;28;20026;-85
2023/04/03 06:35:02;;;;;;;5.22;3.45;;;;;;;0.84;98.08;103084.22;5033183;28;20032;-85
2023/04/03 06:37:28;;;;;;;7.30;3.58;;;;;;;0.82;97.82;103078.13;5031276;28;20128;-84
2023/04/03 06:39:54;;;;;;;8.85;3.65;;;;;;;0.92;97.36;103087.72;5052205;28;20030;-85
2023/04/03 06:42:20;;;;;;;4.63;3.08;;;;;;;0.96;97.43;103085.97;5061569;28;20020;-86
2023/04/03 06:44:46;;;;;;;8.50;3.25;;;;;;;0.98;96.80;103085.06;5056046;28;20044;-85
2023/04/03 06:47:13;;;;;;;6.88;3.30;;;;;;;1.04;96.76;103086.84;5044633;28;20378;-85
2023/04/03 06:49:38;;;;;;;7.63;3.33;;;;;;;1.04;96.59;103092.06;5039285;28;20017;-85
2023/04/03 06:52:05;;;;;;;7.25;3.10;;;;;;;1.10;96.23;103092.06;5046342;28;20036;-85
2023/04/03 06:54:31;;;;;;;11.57;3.30;;;;;;;1.13;95.43;103091.19;5036860;28;20053;-85
2023/04/03 06:56:56;;;;;;;4.65;3.15;;;;;;;1.15;95.69;103086.81;5037033;28;20064;-85
2023/04/03 06:59:21;;;;;;;9.00;3.17;;;;;;;1.19;95.06;103094.66;5040226;28;20049;-85
2023/04/03 07:01:47;;;;;;;7.93;3.25;;;;;;;1.23;94.81;103088.56;5036416;28;20013;-85
2023/04/03 07:04:13;;;;;;;5.50;3.03;;;;;;;1.32;94.57;103102.53;5032400;28;20034;-85
2023/04/03 07:06:42;;;;;;;7.05;3.75;;;;;;;1.32;94.87;103089.44;5039622;28;20448;-85
2023/04/03 07:09:08;;;;;;;6.25;2.95;;;;;;;1.44;95.35;103108.59;5034088;28;20034;-85
2023/04/03 07:11:34;;;;;;;5.25;2.83;;;;;;;1.50;94.49;103098.97;5029081;28;20087;-85
2023/04/03 07:14:00;;;;;;;7.05;3.25;;;;;;;1.57;93.90;103090.25;5031619;28;20029;-85
2023/04/03 07:16:25;;;;;;;7.53;3.00;;;;;;;1.68;93.44;103096.31;5031354;28;20033;-85
2023/04/03 07:18:51;;;;;;;5.57;3.10;;;;;;;1.76;94.07;103088.44;5036779;28;20028;-84
2023/04/03 07:21:16;;;;;;;5.72;3.00;;;;;;;1.92;93.62;103110.22;5040490;28;20052;-85
2023/04/03 07:23:42;;;;;;;5.45;3.08;;;;;;;1.96;92.53;103091.84;5026797;28;20025;-85
2023/04/03 07:26:08;;;;;;;5.05;2.83;;;;;;;2.15;92.02;103096.97;5031222;28;20030;-84
2023/04/03 07:28:33;;;;;;;7.25;3.17;;;;;;;2.32;91.99;103099.53;5027462;28;20022;-84
2023/04/03 07:31:05;;;;;;;5.40;3.25;;;;;;;2.55;90.79;103112.53;5038230;28;20038;-85
2023/04/03 07:33:31;;;;;;;8.82;3.20;;;;;;;2.73;88.48;103122.00;5030858;28;20094;-84
2023/04/03 07:35:56;;;;;;;6.80;2.70;;;;;;;2.87;88.95;103112.28;5045765;28;20025;-84
2023/04/03 07:38:22;;;;;;;5.72;2.72;;;;;;;3.07;86.86;103120.00;5034022;28;20042;-84
2023/04/03 07:40:49;;;;;;;8.30;3.25;;;;;;;3.23;85.05;103120.75;5031729;28;20030;-85
2023/04/03 07:43:16;;;;;;;4.90;2.78;;;;;;;3.42;84.28;103126.69;5056724;28;20029;-85
2023/04/03 07:45:41;;;;;;;3.95;2.80;;;;;;;3.57;83.51;103122.16;5042948;28;20076;-84
2023/04/03 07:48:07;;;;;;;4.90;2.95;;;;;;;3.75;83.41;103119.34;5046155;28;20033;-84
2023/04/03 07:50:32;;;;;;;4.82;2.83;;;;;;;3.99;82.36;103133.06;5042159;28;20054;-84
2023/04/03 07:52:58;;;;;;;6.68;3.10;;;;;;;4.14;80.61;103129.38;5054796;28;20475;-85
2023/04/03 07:55:25;;;;;;;5.28;2.97;;;;;;;4.26;80.65;103122.22;5033833;28;20096;-84
2023/04/03 07:57:51;;;;;;;7.43;3.28;;;;;;;4.47;78.64;103125.41;5023770;28;20056;-84
2023/04/03 08:00:17;;;;;;;5.65;2.70;;;;;;;4.72;78.58;103123.28;5053832;28;20033;-84
2023/04/03 08:02:44;;;;;;;8.60;2.70;;;;;;;4.95;77.94;103127.34;5041171;28;20044;-84
2023/04/03 08:05:10;;;;;;;9.40;3.00;;;;;;;5.13;76.02;103128.78;5033431;28;20033;-84
2023/04/03 08:07:39;;;;;;;6.00;2.55;;;;;;;5.32;75.70;103129.34;5029937;28;20534;-84
2023/04/03 08:10:05;;;;;;;;;;;;;;;5.44;79.96;103125.63;5057974;28;20025;-84
2023/04/03 08:12:31;;;;;;;14.15;3.03;;;;;;;5.67;76.94;103127.81;5059805;28;19909;-84
2023/04/03 08:14:57;;;;;;;5.70;2.30;;;;;;;5.83;73.51;103126.63;5044649;28;20394;-84
2023/04/03 08:17:23;;;;;;;5.18;2.58;;;;;;;6.03;72.06;103128.00;5044998;28;20034;-84
2023/04/03 08:19:48;;;;;;;5.63;2.50;;;;;;;6.16;70.85;103128.63;5039502;28;20041;-84
2023/04/03 08:22:13;;;;;;;4.68;2.80;;;;;;;6.28;69.87;103125.75;5059961;28;20040;-84
2023/04/03 08:24:38;;;;;;;5.88;2.63;;;;;;;6.50;71.70;103127.91;5052434;28;20502;-84
2023/04/03 08:27:04;;;;;;;6.70;2.97;;;;;;;6.64;67.94;103129.31;5041920;28;20071;-84
2023/04/03 08:29:30;;;;;;;5.13;2.38;;;;;;;6.80;68.34;103128.94;5025998;28;20029;-84
2023/04/03 08:31:55;;;;;;;3.95;2.58;;;;;;;6.97;66.43;103128.53;5043535;28;20052;-85
2023/04/03 08:34:21;;;;;;;7.65;2.50;;;;;;;7.01;64.72;103132.81;5037166;28;20029;-84
2023/04/03 08:36:47;;;;;;;5.32;2.47;;;;;;;7.17;64.37;103128.88;5042048;28;20056;-84
2023/04/03 08:39:12;;;;;;;4.78;2.50;;;;;;;7.25;62.36;103133.13;5043947;28;20037;-84
2023/04/03 08:41:47;;;;;;;9.10;2.75;;;;;;;7.34;64.30;103131.09;5044161;28;20048;-84
2023/04/03 08:44:24;;;;;;;5.90;2.50;;;;;;;7.57;64.95;103141.06;5032309;28;20030;-84
2023/04/03 08:47:14;;;;;;;4.97;2.40;;;;;;;7.72;66.11;103138.91;5041465;28;20483;-84
2023/04/03 08:50:05;;;;;;;3.92;2.20;;;;;;;7.91;63.80;103136.59;5043251;28;20036;-84
2023/04/03 08:52:50;;;;;;;5.95;2.20;;;;;;;8.03;62.45;103130.97;5044510;28;20061;-84
2023/04/03 08:55:33;;;;;;;4.30;2.28;;;;;;;8.20;61.15;103138.41;5034327;28;20040;-84
2023/04/03 08:58:12;;;;;;;7.75;2.10;;;;;;;8.33;58.51;103142.44;5051799;28;20041;-84
2023/04/03 09:00:47;;;;;;;4.75;2.20;;;;;;;8.46;57.31;103132.38;5048127;28;20025;-84
2023/04/03 09:03:15;;;;;;;3.63;1.95;;;;;;;8.64;52.44;103143.28;5046995;28;20024;-84
2023/04/03 09:05:47;;;;;;;3.03;1.77;;;;;;;8.85;54.22;103137.31;5045415;28;20025;-84
2023/04/03 09:08:27;;;;;;;3.22;1.65;;;;;;;8.95;50.56;103137.03;5039392;28;20081;-84
2023/04/03 09:11:04;;;;;;;2.30;1.70;;;;;;;9.08;50.84;103130.41;5046319;28;20036;-84
2023/04/03 09:13:43;;;;;;;3.47;1.60;;;;;;;9.22;48.84;103140.53;5046939;28;20057;-84
2023/04/03 09:16:33;;;;;;;3.03;1.70;;;;;;;9.22;49.76;103133.41;5050908;28;20033;-85
2023/04/03 09:19:15;;;;;;;4.35;1.95;;;;;;;9.44;52.93;103137.97;5053330;28;20025;-85
2023/04/03 09:21:42;;;;;;;3.83;1.55;;;;;;;9.69;46.19;103138.00;5048590;28;20140;-84
2023/04/03 09:24:12;;;;;;;1.98;1.52;;;;;;;9.87;44.55;103138.25;5048214;28;20032;-85
2023/04/03 09:27:02;;;;;;;4.80;1.60;;;;;;;10.03;46.28;103138.56;5044749;28;20030;-86
2023/04/03 09:29:28;;;;;;;3.00;1.33;;;;;;;9.94;40.32;103156.56;5034279;28;20040;-85
2023/04/03 09:32:00;;;;;;;1.92;1.42;;;;;;;9.86;41.04;103144.47;5040599;28;20049;-85
2023/04/03 09:34:30;;;;;;;2.88;1.30;;;;;;;9.77;39.02;103130.59;5027365;28;20021;-84
2023/04/03 09:37:05;;;;;;;5.78;1.73;;;;;;;9.65;38.53;103128.41;5033536;28;20042;-85
2023/04/03 09:39:32;;;;;;;4.35;1.42;;;;;;;9.69;37.31;103135.34;5052582;28;20036;-85
2023/04/03 09:42:02;;;;;;;2.10;1.20;;;;;;;9.71;37.96;103137.91;5045964;28;20029;-85
2023/04/03 09:44:31;;;;;;;2.70;1.40;;;;;;;9.78;38.61;103123.53;5045077;28;20114;-85
2023/04/03 09:46:57;;;;;;;;;;;;;;;10.10;45.06;103124.13;5045801;28;20056;-84
2023/04/03 09:49:22;;;;;;;1.90;1.38;;;;;;;10.07;37.30;103111.81;5045253;28;19976;-85
2023/04/03 09:51:48;;;;;;;1.95;1.27;;;;;;;10.23;37.46;103109.44;5032731;28;20030;-84
2023/04/03 09:54:30;;;;;;;5.05;1.25;;;;;;;10.45;40.39;103112.13;5036171;28;20085;-84
2023/04/03 09:57:01;;;;;;;1.25;1.15;;;;;;;10.50;36.51;103104.00;5042513;28;20048;-84
2023/04/03 09:59:27;;;;;;;2.00;1.13;;;;;;;10.44;35.76;103101.56;5046826;28;20037;-84
2023/04/03 10:02:33;;;;;;;2.67;1.60;;;;;;;10.63;38.22;103107.88;5035342;28;20029;-84
2023/04/03 10:04:59;;;;;;;3.00;1.30;;;;;;;10.50;32.54;103107.50;5024147;28;20073;-84
2023/04/03 10:07:37;;;;;;;2.33;1.48;;;;;;;10.48;34.07;103098.75;5031909;28;20026;-84
2023/04/03 10:10:25;;;;;;;1.67;1.20;;;;;;;10.53;35.88;103106.53;5043687;28;20021;-84
2023/04/03 10:13:11;;;;;;;2.22;1.02;;;;;;;10.61;36.60;103099.13;5032671;28;20032;-84
2023/04/03 10:15:43;;;;;;;3.05;1.42;;;;;;;10.57;33.44;103097.50;5048327;28;20028;-85
2023/04/03 10:18:28;;;;;;;2.20;1.30;;;;;;;10.64;35.70;103095.44;5044991;28;20111;-85
2023/04/03 10:20:56;;;;;;;1.35;1.17;;;;;;;10.71;33.66;103100.47;5050577;28;20056;-85
2023/04/03 10:23:44;;;;;;;3.28;1.02;;;;;;;10.84;35.42;103100.84;5045889;28;20034;-84
2023/04/03 10:26:12;;;;;;;2.63;1.20;;;;;;;10.87;34.12;103087.38;5043530;28;20024;-85
2023/04/03 10:28:54;;;;;;;2.20;1.20;;;;;;;10.93;34.96;103083.63;5046908;28;20068;-85
2023/04/03 10:31:29;;;;;;;1.58;1.25;;;;;;;11.22;36.81;103077.03;5043292;28;20033;-84
2023/04/03 10:34:20;;;;;;;1.40;1.02;;;;;;;11.21;34.60;103079.78;5038141;28;20029;-85
2023/04/03 10:37:19;;;;;;;1.90;1.20;;;;;;;11.32;35.94;103080.16;5044563;28;20053;-85
2023/04/03 10:39:59;;;;;;;2.47;1.40;;;;;;;11.28;33.96;103075.91;5035829;28;20042;-85
2023/04/03 10:42:58;;;;;;;1.90;1.20;;;;;;;11.34;37.16;103057.03;5050304;28;20030;-85
2023/04/03 10:45:26;;;;;;;1.55;1.00;;;;;;;11.48;33.97;103059.06;5051536;28;20029;-86
2023/04/03 10:48:11;;;;;;;1.27;1.17;;;;;;;11.63;33.48;103060.16;5052470;28;20026;-85
2023/04/03 10:50:52;;;;;;;1.80;1.10;;;;;;;11.83;33.22;103062.78;5050022;28;20052;-85
2023/04/03 10:53:35;;;;;;;1.90;0.90;;;;;;;11.77;31.18;103056.88;5047672;28;20164;-86
2023/04/03 10:56:12;;;;;;;2.88;1.00;;;;;;;11.73;30.57;103060.63;5041527;28;20030;-85
2023/04/03 10:58:44;;;;;;;1.20;1.08;;;;;;;11.76;31.85;103045.38;5049508;28;20149;-84
2023/04/03 11:01:16;;;;;;;2.35;1.10;;;;;;;11.69;30.80;103045.72;5037048;28;20490;-85
2023/04/03 11:03:52;;;;;;;2.15;1.10;;;;;;;11.52;30.96;103050.00;5054578;28;20033;-85
2023/04/03 11:06:23;;;;;;;2.10;1.23;;;;;;;11.71;31.56;103039.38;5049881;28;20036;-85
2023/04/03 11:08:56;;;;;;;1.65;1.10;;;;;;;11.78;30.00;103047.97;5043835;28;20515;-85
2023/04/03 11:11:27;;;;;;;1.33;1.10;;;;;;;11.89;31.11;103035.00;5051133;28;20064;-86
2023/04/03 11:14:02;;;;;;;5.38;1.23;;;;;;;12.01;32.15;103037.13;5046731;28;20029;-86
2023/04/03 11:16:43;;;;;;;2.25;1.00;;;;;;;12.04;30.43;103046.78;5041973;28;20048;-85
2023/04/03 11:19:23;;;;;;;2.30;1.25;;;;;;;12.05;31.54;103027.16;5031921;28;20030;-85
2023/04/03 11:22:03;;;;;;;5.32;1.40;;;;;;;12.17;31.27;103037.25;5042761;28;20036;-85
2023/04/03 11:24:32;;;;;;;1.75;0.98;;;;;;;12.19;30.10;103035.38;5046725;28;20109;-85
2023/04/03 11:26:59;;;;;;;;;;;;;;;12.38;32.55;103038.00;5033718;28;20250;-85
2023/04/03 11:29:33;;;;;;;1.10;1.00;;;;;;;12.04;29.75;103022.81;5049101;28;19944;-85
2023/04/03 11:32:17;;;;;;;1.67;1.17;;;;;;;12.11;30.93;103020.72;5050651;28;20131;-85
2023/04/03 11:34:50;;;;;;;1.35;1.08;;;;;;;12.02;28.29;103012.22;5046516;28;20038;-85
2023/04/03 11:37:43;;;;;;;1.10;1.02;;;;;;;12.09;32.94;103011.91;5049796;28;20046;-86